createdAt,value
2019-03-31T00:02:14.924Z,28.63
2019-03-31T00:05:02.109Z,29.47
2019-03-31T00:07:49.552Z,30.93
2019-03-31T00:10:36.740Z,32.60
2019-03-31T00:13:23.775Z,32.43
2019-03-31T00:16:12.002Z,36.27
2019-03-31T00:18:58.801Z,36.10
2019-03-31T00:21:46.112Z,37.37
2019-03-31T00:24:33.920Z,37.73
2019-03-31T00:27:21.053Z,38.77
2019-03-31T00:30:08.514Z,38.57
2019-03-31T00:32:55.658Z,37.77
2019-03-31T00:35:42.329Z,39.47
2019-03-31T00:38:30.690Z,39.53
2019-03-31T00:41:18.022Z,40.47
2019-03-31T00:44:05.538Z,38.70
2019-03-31T00:46:53.521Z,37.80
2019-03-31T00:49:41.330Z,41.47
2019-03-31T00:52:28.425Z,43.57
2019-03-31T00:55:15.203Z,39.60
2019-03-31T00:58:03.058Z,40.43
2019-03-31T01:01:35.726Z,40.00
2019-03-31T01:04:14.816Z,40.43
2019-03-31T01:07:04.425Z,42.03
2019-03-31T01:09:54.112Z,41.40
2019-03-31T01:12:41.675Z,39.67
2019-03-31T01:15:29.668Z,42.53
2019-03-31T01:18:16.777Z,39.63
2019-03-31T01:21:04.006Z,42.33
2019-03-31T01:23:51.477Z,40.70
2019-03-31T01:26:39.109Z,42.50
2019-03-31T01:29:26.313Z,41.10
2019-03-31T01:32:14.629Z,42.50
2019-03-31T01:35:01.537Z,42.43
2019-03-31T01:37:48.870Z,41.77
2019-03-31T01:40:37.817Z,41.70
2019-03-31T01:43:24.964Z,42.97
2019-03-31T01:46:14.723Z,43.13
2019-03-31T01:49:02.068Z,43.50
2019-03-31T01:51:49.392Z,44.53
2019-03-31T01:54:36.705Z,45.93
2019-03-31T01:57:23.846Z,43.27
2019-03-31T02:00:24.168Z,44.47
2019-03-31T02:03:10.941Z,45.67
2019-03-31T02:05:57.989Z,45.70
2019-03-31T02:08:45.716Z,43.63
2019-03-31T02:11:33.041Z,45.27
2019-03-31T02:14:20.413Z,47.20
2019-03-31T02:17:07.589Z,47.27
2019-03-31T02:19:54.713Z,44.70
2019-03-31T02:22:41.525Z,47.37
2019-03-31T02:25:28.652Z,47.23
2019-03-31T02:28:16.189Z,46.03
2019-03-31T02:31:03.559Z,48.30
2019-03-31T02:33:50.795Z,46.83
2019-03-31T02:36:38.498Z,46.33
2019-03-31T02:39:26.348Z,49.63
2019-03-31T02:42:14.511Z,45.60
2019-03-31T02:45:01.389Z,48.53
2019-03-31T02:47:49.118Z,49.83
2019-03-31T02:50:44.863Z,50.03
2019-03-31T02:53:31.786Z,51.60
2019-03-31T02:56:19.471Z,48.90
2019-03-31T02:59:07.651Z,49.13
2019-03-31T03:01:56.499Z,50.23
2019-03-31T03:04:46.131Z,48.03
2019-03-31T03:07:36.936Z,50.73
2019-03-31T03:10:24.464Z,50.17
2019-03-31T03:13:13.802Z,48.43
2019-03-31T03:16:23.601Z,48.90
2019-03-31T03:19:10.827Z,49.57
2019-03-31T03:21:57.878Z,50.43
2019-03-31T03:24:44.961Z,48.37
2019-03-31T03:27:31.996Z,52.77
2019-03-31T03:30:18.829Z,48.70
2019-03-31T03:33:16.362Z,52.70
2019-03-31T03:35:55.090Z,47.43
2019-03-31T03:38:42.164Z,51.10
2019-03-31T03:41:29.754Z,52.83
2019-03-31T03:44:18.603Z,49.00
2019-03-31T03:47:05.526Z,50.13
2019-03-31T03:49:52.742Z,53.63
2019-03-31T03:52:39.408Z,53.13
2019-03-31T03:55:27.256Z,52.43
2019-03-31T03:58:14.605Z,52.23
2019-03-31T04:01:02.119Z,51.47
2019-03-31T04:03:49.462Z,50.00
2019-03-31T04:06:36.783Z,49.70
2019-03-31T04:09:24.012Z,47.43
2019-03-31T04:12:11.015Z,47.73
2019-03-31T04:14:58.892Z,46.80
2019-03-31T04:17:45.813Z,46.80
2019-03-31T04:20:32.942Z,48.40
2019-03-31T04:23:20.777Z,46.57
2019-03-31T04:26:07.808Z,44.10
2019-03-31T04:28:55.041Z,44.07
2019-03-31T04:31:42.559Z,42.20
2019-03-31T04:34:29.295Z,43.33
2019-03-31T04:37:16.623Z,46.37
2019-03-31T04:40:04.099Z,42.87
2019-03-31T04:42:51.452Z,43.77
2019-03-31T04:45:39.822Z,42.70
2019-03-31T04:48:27.036Z,44.07
2019-03-31T04:51:14.944Z,42.23
2019-03-31T04:54:03.220Z,42.23
2019-03-31T04:56:50.229Z,39.93
2019-03-31T04:59:37.495Z,40.63
2019-03-31T05:02:27.167Z,39.50
2019-03-31T05:05:13.563Z,39.33
2019-03-31T05:08:01.127Z,39.77
2019-03-31T05:10:47.779Z,38.50
2019-03-31T05:13:35.054Z,37.67
2019-03-31T05:16:22.249Z,36.00
2019-03-31T05:19:09.755Z,34.33
2019-03-31T05:21:57.215Z,37.47
2019-03-31T05:24:44.335Z,37.43
2019-03-31T05:27:31.639Z,37.40
2019-03-31T05:30:19.369Z,35.57
2019-03-31T05:33:06.605Z,39.47
2019-03-31T05:35:54.543Z,39.50
2019-03-31T05:38:42.175Z,40.43
2019-03-31T05:41:28.996Z,39.73
2019-03-31T05:44:16.290Z,41.33
2019-03-31T05:47:05.170Z,45.40
2019-03-31T05:49:52.163Z,44.63
2019-03-31T05:52:39.488Z,45.83
2019-03-31T05:55:27.023Z,44.67
2019-03-31T05:58:13.919Z,46.97
2019-03-31T06:01:01.152Z,46.63
2019-03-31T06:03:49.083Z,46.87
2019-03-31T06:06:37.177Z,49.33
2019-03-31T06:09:24.791Z,46.23
2019-03-31T06:12:11.998Z,47.13
2019-03-31T06:14:59.300Z,48.57
2019-03-31T06:17:46.947Z,46.80
2019-03-31T06:20:33.943Z,47.80
2019-03-31T06:23:21.171Z,48.43
2019-03-31T06:26:08.732Z,46.13
2019-03-31T06:28:55.930Z,47.37
2019-03-31T06:31:43.210Z,47.90
2019-03-31T06:34:29.795Z,46.73
2019-03-31T06:37:16.982Z,48.00
2019-03-31T06:40:04.834Z,46.40
2019-03-31T06:42:52.304Z,43.77
2019-03-31T06:45:39.420Z,46.80
2019-03-31T06:48:26.298Z,45.40
2019-03-31T06:51:16.824Z,42.43
2019-03-31T06:54:01.864Z,41.77
2019-03-31T06:56:54.810Z,43.80
2019-03-31T06:59:42.339Z,40.13
2019-03-31T07:02:29.512Z,37.27
2019-03-31T07:05:17.416Z,36.00
2019-03-31T07:08:06.860Z,34.43
2019-03-31T07:10:54.043Z,33.60
2019-03-31T07:13:42.964Z,34.33
2019-03-31T07:16:29.954Z,31.40
2019-03-31T07:19:16.471Z,28.90
2019-03-31T07:22:03.856Z,29.23
2019-03-31T07:24:50.936Z,29.17
2019-03-31T07:27:38.039Z,26.90
2019-03-31T07:30:25.212Z,25.80
2019-03-31T07:33:12.847Z,26.37
2019-03-31T07:36:00.722Z,23.87
2019-03-31T07:38:47.980Z,25.57
2019-03-31T07:41:35.462Z,21.23
2019-03-31T07:44:23.261Z,22.77
2019-03-31T07:47:10.496Z,18.93
2019-03-31T07:49:58.527Z,20.57
2019-03-31T07:52:46.103Z,20.13
2019-03-31T07:55:33.323Z,19.20
2019-03-31T07:58:19.982Z,19.13
2019-03-31T08:01:07.812Z,18.27
2019-03-31T08:03:55.364Z,17.63
2019-03-31T08:06:42.223Z,15.00
2019-03-31T08:09:29.540Z,16.93
2019-03-31T08:12:17.172Z,15.67
2019-03-31T08:15:04.531Z,15.47
2019-03-31T08:17:51.938Z,15.40
2019-03-31T08:20:39.001Z,13.90
2019-03-31T08:25:59.162Z,12.23
2019-03-31T08:28:45.766Z,11.23
2019-03-31T08:31:33.083Z,11.60
2019-03-31T08:34:21.641Z,10.77
2019-03-31T08:37:08.146Z,11.53
2019-03-31T08:39:55.335Z,10.03
2019-03-31T08:42:42.323Z,9.83
2019-03-31T08:45:30.567Z,11.00
2019-03-31T08:48:17.631Z,10.37
2019-03-31T08:51:04.853Z,9.53
2019-03-31T08:53:51.196Z,9.87
2019-03-31T08:56:38.182Z,9.87
2019-03-31T08:59:25.287Z,9.00
2019-03-31T09:02:30.436Z,9.63
2019-03-31T09:05:18.482Z,8.87
2019-03-31T09:08:05.491Z,9.13
2019-03-31T09:10:52.107Z,8.17
2019-03-31T09:13:38.699Z,10.27
2019-03-31T09:16:25.710Z,9.17
2019-03-31T09:19:12.795Z,8.80
2019-03-31T09:21:59.249Z,9.40
2019-03-31T09:24:46.064Z,9.57
2019-03-31T09:27:33.527Z,9.67
2019-03-31T09:30:19.890Z,9.03
2019-03-31T09:33:07.119Z,9.60
2019-03-31T09:35:53.879Z,10.07
2019-03-31T09:38:40.388Z,10.03
2019-03-31T09:41:27.889Z,10.23
2019-03-31T09:44:14.653Z,10.07
2019-03-31T09:47:01.931Z,9.47
2019-03-31T09:49:49.327Z,9.70
2019-03-31T09:52:36.183Z,9.63
2019-03-31T09:55:35.005Z,9.90
2019-03-31T09:58:21.415Z,8.90
2019-03-31T10:01:08.427Z,7.93
2019-03-31T10:03:55.584Z,8.33
2019-03-31T10:06:44.563Z,6.77
2019-03-31T10:09:31.187Z,6.97
2019-03-31T10:12:18.303Z,7.27
2019-03-31T10:15:06.143Z,7.67
2019-03-31T10:17:53.055Z,8.10
2019-03-31T10:20:39.761Z,7.33
2019-03-31T10:23:26.675Z,6.63
2019-03-31T10:26:15.996Z,6.30
2019-03-31T10:29:02.448Z,7.70
2019-03-31T10:31:49.315Z,6.40
2019-03-31T10:34:36.268Z,7.30
2019-03-31T10:37:22.790Z,6.37
2019-03-31T10:40:11.803Z,7.20
2019-03-31T10:42:58.358Z,6.87
2019-03-31T10:45:46.609Z,7.03
2019-03-31T10:48:34.115Z,7.17
2019-03-31T10:51:21.114Z,8.30
2019-03-31T10:54:07.934Z,6.20
2019-03-31T10:56:57.007Z,6.90
2019-03-31T10:59:44.610Z,5.70
2019-03-31T11:02:33.646Z,5.80
2019-03-31T11:05:20.670Z,5.30
2019-03-31T11:08:06.906Z,5.70
2019-03-31T11:10:54.536Z,6.47
2019-03-31T11:13:44.933Z,6.30
2019-03-31T11:16:31.941Z,7.40
2019-03-31T11:19:18.248Z,7.23
2019-03-31T11:22:13.759Z,6.60
2019-03-31T11:25:00.674Z,6.80
2019-03-31T11:27:47.387Z,6.47
2019-03-31T11:30:34.400Z,6.20
2019-03-31T11:33:21.736Z,5.77
2019-03-31T11:36:07.975Z,7.40
2019-03-31T11:38:54.875Z,6.80
2019-03-31T11:41:42.058Z,6.97
2019-03-31T11:44:28.902Z,7.57
2019-03-31T11:47:15.431Z,7.70
2019-03-31T11:50:04.044Z,7.10
2019-03-31T11:52:50.326Z,6.57
2019-03-31T11:55:38.732Z,6.37
2019-03-31T11:58:25.783Z,5.63
2019-03-31T12:01:12.579Z,5.77
2019-03-31T12:03:59.915Z,5.30
2019-03-31T12:06:47.443Z,4.27
2019-03-31T12:09:34.048Z,3.87
2019-03-31T12:12:20.806Z,4.20
2019-03-31T12:15:08.235Z,3.93
2019-03-31T12:17:54.769Z,4.00
2019-03-31T12:20:41.780Z,4.47
2019-03-31T12:23:29.171Z,4.93
2019-03-31T12:26:16.699Z,4.30
2019-03-31T12:29:07.786Z,4.47
2019-03-31T12:31:57.038Z,4.07
2019-03-31T12:34:43.427Z,4.33
2019-03-31T12:37:41.761Z,4.63
2019-03-31T12:40:29.527Z,4.60
2019-03-31T12:43:16.136Z,4.50
2019-03-31T12:46:03.674Z,3.83
2019-03-31T12:48:50.388Z,4.37
2019-03-31T12:51:36.985Z,4.53
2019-03-31T12:54:24.570Z,4.30
2019-03-31T12:57:11.244Z,4.43
2019-03-31T12:59:57.890Z,3.80
2019-03-31T13:02:44.994Z,4.37
2019-03-31T13:05:32.156Z,4.50
2019-03-31T13:08:19.453Z,4.53
2019-03-31T13:11:06.369Z,5.63
2019-03-31T13:13:52.702Z,4.60
2019-03-31T13:16:40.467Z,4.50
2019-03-31T13:19:27.017Z,5.30
2019-03-31T13:22:13.651Z,4.93
2019-03-31T13:25:02.573Z,5.03
2019-03-31T13:27:50.149Z,4.40
2019-03-31T13:30:36.571Z,4.00
2019-03-31T13:33:23.796Z,4.20
2019-03-31T13:36:11.227Z,4.00
2019-03-31T13:38:58.951Z,4.13
2019-03-31T13:41:47.229Z,4.40
2019-03-31T13:44:34.216Z,3.73
2019-03-31T13:47:20.824Z,3.97
2019-03-31T13:50:07.975Z,3.63
2019-03-31T13:52:57.657Z,3.63
2019-03-31T13:55:44.873Z,3.77
2019-03-31T13:58:33.728Z,3.50
2019-03-31T14:01:20.481Z,3.53
2019-03-31T14:04:07.252Z,3.80
2019-03-31T14:06:54.677Z,3.10
2019-03-31T14:09:41.292Z,3.10
2019-03-31T14:12:27.788Z,3.30
2019-03-31T14:15:19.439Z,3.20
2019-03-31T14:18:03.408Z,3.47
2019-03-31T14:20:51.292Z,3.57
2019-03-31T14:23:37.659Z,4.00
2019-03-31T14:26:24.503Z,3.37
2019-03-31T14:29:11.316Z,4.70
2019-03-31T14:31:58.441Z,3.50
2019-03-31T14:34:45.929Z,3.80
2019-03-31T14:37:32.875Z,4.70
2019-03-31T14:40:19.785Z,4.07
2019-03-31T14:43:06.801Z,4.70
2019-03-31T14:45:53.209Z,4.20
2019-03-31T14:48:40.222Z,5.03
2019-03-31T14:51:27.449Z,5.00
2019-03-31T14:54:13.740Z,4.30
2019-03-31T14:57:00.902Z,3.63
2019-03-31T14:59:47.673Z,3.83
2019-03-31T15:02:34.273Z,3.87
2019-03-31T15:05:21.193Z,4.30
2019-03-31T15:08:08.162Z,3.47
2019-03-31T15:10:54.402Z,3.90
2019-03-31T15:13:41.145Z,3.40
2019-03-31T15:16:28.049Z,4.00
2019-03-31T15:19:15.449Z,4.43
2019-03-31T15:22:02.365Z,3.70
2019-03-31T15:24:48.768Z,3.57
2019-03-31T15:27:35.541Z,4.17
2019-03-31T15:30:21.771Z,4.40
2019-03-31T15:33:08.389Z,4.10
2019-03-31T15:35:56.031Z,4.13
2019-03-31T15:38:42.717Z,3.43
2019-03-31T15:41:30.345Z,3.20
2019-03-31T15:44:17.257Z,5.10
2019-03-31T15:47:03.762Z,3.67
2019-03-31T15:49:50.881Z,3.03
2019-03-31T15:52:37.899Z,3.07
2019-03-31T15:55:24.600Z,2.47
2019-03-31T15:58:11.377Z,2.60
2019-03-31T16:00:58.121Z,2.70
2019-03-31T16:03:44.629Z,3.10
2019-03-31T16:06:31.880Z,3.20
2019-03-31T16:09:23.655Z,3.00
2019-03-31T16:12:07.009Z,3.20
2019-03-31T16:14:53.661Z,2.50
2019-03-31T16:17:39.818Z,3.03
2019-03-31T16:20:26.132Z,3.23
2019-03-31T16:23:12.614Z,2.97
2019-03-31T16:25:58.599Z,2.97
2019-03-31T16:28:53.951Z,2.77
2019-03-31T16:31:40.313Z,2.90
2019-03-31T16:34:26.309Z,2.80
2019-03-31T16:37:13.241Z,2.83
2019-03-31T16:40:00.649Z,3.10
2019-03-31T16:42:46.733Z,2.77
2019-03-31T16:45:33.297Z,2.80
2019-03-31T16:48:19.445Z,2.53
2019-03-31T16:51:05.240Z,2.73
2019-03-31T16:53:53.493Z,3.07
2019-03-31T16:56:47.926Z,3.33
2019-03-31T16:59:43.694Z,2.30
2019-03-31T17:02:29.954Z,3.40
2019-03-31T17:05:21.945Z,4.47
2019-03-31T17:08:05.479Z,2.60
2019-03-31T17:10:53.902Z,2.47
2019-03-31T17:13:40.305Z,3.20
2019-03-31T17:16:26.662Z,2.87
2019-03-31T17:19:12.815Z,3.17
2019-03-31T17:22:01.562Z,3.10
2019-03-31T17:24:47.742Z,3.00
2019-03-31T17:27:35.182Z,3.07
2019-03-31T17:30:21.698Z,2.97
2019-03-31T17:33:07.815Z,2.83
2019-03-31T17:35:54.889Z,3.20
2019-03-31T17:38:41.910Z,3.23
2019-03-31T17:41:34.785Z,3.30
2019-03-31T17:44:28.822Z,3.17
2019-03-31T17:47:15.601Z,3.63
2019-03-31T17:50:01.369Z,3.07
2019-03-31T17:52:48.030Z,2.97
2019-03-31T17:55:34.245Z,3.53
2019-03-31T17:58:20.849Z,3.00
2019-03-31T18:01:06.819Z,3.30
2019-03-31T18:03:53.169Z,3.43
2019-03-31T18:06:39.690Z,3.03
2019-03-31T18:09:25.994Z,3.10
2019-03-31T18:12:11.974Z,3.13
2019-03-31T18:14:58.094Z,2.87
2019-03-31T18:17:43.982Z,3.47
2019-03-31T18:20:30.074Z,2.67
2019-03-31T18:23:16.898Z,3.03
2019-03-31T18:26:03.284Z,2.53
2019-03-31T18:28:49.687Z,2.57
2019-03-31T18:31:36.006Z,5.07
2019-03-31T18:34:22.214Z,3.50
2019-03-31T18:37:08.121Z,3.30
2019-03-31T18:39:54.635Z,3.23
2019-03-31T18:42:40.830Z,2.70
2019-03-31T18:45:27.018Z,2.90
2019-03-31T18:48:13.686Z,2.70
2019-03-31T18:50:59.836Z,3.27
2019-03-31T18:53:51.449Z,2.93
2019-03-31T18:57:00.991Z,2.10
2019-03-31T19:00:08.589Z,2.10
2019-03-31T19:03:29.904Z,2.03
2019-03-31T19:06:43.065Z,2.27
2019-03-31T19:09:39.581Z,2.67
2019-03-31T19:12:38.470Z,2.60
2019-03-31T19:15:35.522Z,2.00
2019-03-31T19:18:37.691Z,2.37
2019-03-31T19:21:38.130Z,2.17
2019-03-31T19:24:36.398Z,2.63
2019-03-31T19:27:31.099Z,2.83
2019-03-31T19:30:39.923Z,2.70
2019-03-31T19:33:54.279Z,2.60
2019-03-31T19:36:58.194Z,2.20
2019-03-31T19:40:04.973Z,2.57
2019-03-31T19:43:15.438Z,2.10
2019-03-31T19:46:30.513Z,2.30
2019-03-31T19:49:48.446Z,2.53
2019-03-31T19:53:01.166Z,2.27
2019-03-31T19:56:07.832Z,3.30
2019-03-31T19:59:20.467Z,2.20
2019-03-31T20:02:28.983Z,2.53
2019-03-31T20:05:31.489Z,2.10
2019-03-31T20:08:29.242Z,2.10
2019-03-31T20:11:19.312Z,2.03
2019-03-31T20:14:37.869Z,2.27
2019-03-31T20:17:32.915Z,2.80
2019-03-31T20:20:36.999Z,2.10
2019-03-31T20:23:48.579Z,2.20
2019-03-31T20:27:07.029Z,2.40
2019-03-31T20:30:11.350Z,2.37
2019-03-31T20:33:20.386Z,2.40
2019-03-31T20:36:41.301Z,2.43
2019-03-31T20:39:56.030Z,1.83
2019-03-31T20:42:46.460Z,1.90
2019-03-31T20:45:32.625Z,1.93
2019-03-31T20:48:18.646Z,2.07
2019-03-31T20:51:04.980Z,2.27
2019-03-31T20:53:51.822Z,2.60
2019-03-31T20:56:38.150Z,2.03
2019-03-31T20:59:24.492Z,2.10
2019-03-31T21:02:10.774Z,1.93
2019-03-31T21:04:56.920Z,3.17
2019-03-31T21:07:42.831Z,2.23
2019-03-31T21:10:29.749Z,1.93
2019-03-31T21:13:16.030Z,2.17
2019-03-31T21:16:02.580Z,1.63
2019-03-31T21:18:48.955Z,2.07
2019-03-31T21:21:35.153Z,1.90
2019-03-31T21:24:21.427Z,1.90
2019-03-31T21:27:07.750Z,2.23
2019-03-31T21:29:54.075Z,2.10
2019-03-31T21:32:40.246Z,1.80
2019-03-31T21:35:26.438Z,2.10
2019-03-31T21:38:13.962Z,1.90
2019-03-31T21:41:00.376Z,2.33
2019-03-31T21:43:46.054Z,1.87
2019-03-31T21:46:33.180Z,2.83
2019-03-31T21:49:19.349Z,1.90
2019-03-31T21:52:05.663Z,1.87
2019-03-31T21:54:52.473Z,2.03
2019-03-31T21:57:38.470Z,2.57
2019-03-31T22:00:38.690Z,2.03
2019-03-31T22:03:24.796Z,2.10
2019-03-31T22:06:10.577Z,1.37
2019-03-31T22:08:56.563Z,1.97
2019-03-31T22:11:42.471Z,1.60
2019-03-31T22:14:29.124Z,2.00
2019-03-31T22:17:15.668Z,2.20
2019-03-31T22:20:01.902Z,1.53
2019-03-31T22:22:48.570Z,1.87
2019-03-31T22:25:34.984Z,2.07
2019-03-31T22:28:21.180Z,1.90
2019-03-31T22:31:07.176Z,2.17
2019-03-31T22:33:53.973Z,2.10
2019-03-31T22:36:40.467Z,1.80
2019-03-31T22:39:26.759Z,2.00
2019-03-31T22:42:13.089Z,1.87
2019-03-31T22:44:59.485Z,1.93
2019-03-31T22:47:46.027Z,1.50
2019-03-31T22:50:32.476Z,1.80
2019-03-31T22:53:19.116Z,2.00
2019-03-31T22:56:05.377Z,1.77
2019-03-31T22:58:51.575Z,1.43
2019-03-31T23:01:38.496Z,1.97
2019-03-31T23:04:24.519Z,2.00
2019-03-31T23:07:10.888Z,1.77
2019-03-31T23:09:57.186Z,1.90
2019-03-31T23:12:43.381Z,1.57
2019-03-31T23:15:29.491Z,2.17
2019-03-31T23:18:16.335Z,1.80
2019-03-31T23:21:02.524Z,1.70
2019-03-31T23:23:48.840Z,1.73
2019-03-31T23:26:35.751Z,1.90
2019-03-31T23:29:21.848Z,1.80
2019-03-31T23:32:07.739Z,2.10
2019-03-31T23:34:54.756Z,1.60
2019-03-31T23:37:40.746Z,2.77
2019-03-31T23:40:26.877Z,2.63
2019-03-31T23:43:13.442Z,1.53
2019-03-31T23:45:59.751Z,2.23
2019-03-31T23:48:45.884Z,1.70
2019-03-31T23:51:32.390Z,2.10
2019-03-31T23:54:19.785Z,1.93
2019-03-31T23:57:05.788Z,1.30
2019-03-31T23:59:52.407Z,1.40
